sensor_id;sensor_type;location;lat;lon;timestamp;P1;durP1;ratioP1;P2;durP2;ratioP2
69502;SDS011;56704;54.242;12.442;2023-07-09T00:00:52;5.50;;;2.33;;
69502;SDS011;56704;54.242;12.442;2023-07-09T00:03:19;7.50;;;2.40;;
69502;SDS011;56704;54.242;12.442;2023-07-09T00:05:46;6.28;;;1.90;;
69502;SDS011;56704;54.242;12.442;2023-07-09T00:08:16;7.47;;;2.20;;
69502;SDS011;56704;54.242;12.442;2023-07-09T00:10:51;6.68;;;2.33;;
69502;SDS011;56704;54.242;12.442;2023-07-09T00:13:22;4.70;;;2.20;;
69502;SDS011;56704;54.242;12.442;2023-07-09T00:15:49;7.88;;;2.17;;
69502;SDS011;56704;54.242;12.442;2023-07-09T00:18:16;5.50;;;2.60;;
69502;SDS011;56704;54.242;12.442;2023-07-09T00:20:43;4.57;;;2.40;;
69502;SDS011;56704;54.242;12.442;2023-07-09T00:23:09;4.65;;;2.10;;
69502;SDS011;56704;54.242;12.442;2023-07-09T00:25:38;6.50;;;2.03;;
69502;SDS011;56704;54.242;12.442;2023-07-09T00:28:11;8.82;;;2.63;;
69502;SDS011;56704;54.242;12.442;2023-07-09T00:30:41;7.05;;;2.90;;
69502;SDS011;56704;54.242;12.442;2023-07-09T00:33:09;7.50;;;2.35;;
69502;SDS011;56704;54.242;12.442;2023-07-09T00:35:38;7.13;;;2.72;;
69502;SDS011;56704;54.242;12.442;2023-07-09T00:38:07;6.60;;;2.50;;
69502;SDS011;56704;54.242;12.442;2023-07-09T00:40:44;5.88;;;2.20;;
69502;SDS011;56704;54.242;12.442;2023-07-09T00:43:14;6.70;;;2.40;;
69502;SDS011;56704;54.242;12.442;2023-07-09T00:45:43;6.55;;;2.40;;
69502;SDS011;56704;54.242;12.442;2023-07-09T00:48:11;6.97;;;2.30;;
69502;SDS011;56704;54.242;12.442;2023-07-09T00:50:42;7.97;;;2.50;;
69502;SDS011;56704;54.242;12.442;2023-07-09T00:53:15;5.95;;;2.22;;
69502;SDS011;56704;54.242;12.442;2023-07-09T00:55:45;4.28;;;1.95;;
69502;SDS011;56704;54.242;12.442;2023-07-09T00:58:16;5.32;;;2.30;;
69502;SDS011;56704;54.242;12.442;2023-07-09T01:00:46;8.35;;;2.70;;
69502;SDS011;56704;54.242;12.442;2023-07-09T01:03:21;6.93;;;2.30;;
69502;SDS011;56704;54.242;12.442;2023-07-09T01:05:54;6.25;;;2.53;;
69502;SDS011;56704;54.242;12.442;2023-07-09T01:08:23;5.22;;;2.55;;
69502;SDS011;56704;54.242;12.442;2023-07-09T01:10:50;5.93;;;2.85;;
69502;SDS011;56704;54.242;12.442;2023-07-09T01:13:17;6.25;;;2.70;;
69502;SDS011;56704;54.242;12.442;2023-07-09T01:15:46;6.50;;;2.27;;
69502;SDS011;56704;54.242;12.442;2023-07-09T01:18:13;8.52;;;2.78;;
69502;SDS011;56704;54.242;12.442;2023-07-09T01:20:40;6.30;;;2.72;;
69502;SDS011;56704;54.242;12.442;2023-07-09T01:23:09;6.18;;;2.40;;
69502;SDS011;56704;54.242;12.442;2023-07-09T01:25:36;6.30;;;2.53;;
69502;SDS011;56704;54.242;12.442;2023-07-09T01:28:07;5.73;;;2.90;;
69502;SDS011;56704;54.242;12.442;2023-07-09T01:30:35;6.47;;;2.53;;
69502;SDS011;56704;54.242;12.442;2023-07-09T01:33:03;8.27;;;2.78;;
69502;SDS011;56704;54.242;12.442;2023-07-09T01:35:32;6.30;;;2.28;;
69502;SDS011;56704;54.242;12.442;2023-07-09T01:37:59;8.25;;;2.88;;
69502;SDS011;56704;54.242;12.442;2023-07-09T01:40:29;6.13;;;2.30;;
69502;SDS011;56704;54.242;12.442;2023-07-09T01:42:56;6.07;;;2.40;;
69502;SDS011;56704;54.242;12.442;2023-07-09T01:45:24;5.13;;;2.20;;
69502;SDS011;56704;54.242;12.442;2023-07-09T01:47:51;5.85;;;2.10;;
69502;SDS011;56704;54.242;12.442;2023-07-09T01:50:20;6.55;;;2.38;;
69502;SDS011;56704;54.242;12.442;2023-07-09T01:52:49;5.60;;;2.30;;
69502;SDS011;56704;54.242;12.442;2023-07-09T01:55:16;6.40;;;2.72;;
69502;SDS011;56704;54.242;12.442;2023-07-09T01:57:44;6.10;;;2.50;;
69502;SDS011;56704;54.242;12.442;2023-07-09T02:00:12;6.22;;;2.47;;
69502;SDS011;56704;54.242;12.442;2023-07-09T02:02:40;6.95;;;2.70;;
69502;SDS011;56704;54.242;12.442;2023-07-09T02:05:09;5.37;;;2.40;;
69502;SDS011;56704;54.242;12.442;2023-07-09T02:07:37;6.90;;;2.80;;
69502;SDS011;56704;54.242;12.442;2023-07-09T02:10:04;6.05;;;2.33;;
69502;SDS011;56704;54.242;12.442;2023-07-09T02:12:31;8.02;;;2.60;;
69502;SDS011;56704;54.242;12.442;2023-07-09T02:14:59;6.32;;;2.70;;
69502;SDS011;56704;54.242;12.442;2023-07-09T02:17:26;5.93;;;2.80;;
69502;SDS011;56704;54.242;12.442;2023-07-09T02:19:52;6.63;;;2.80;;
69502;SDS011;56704;54.242;12.442;2023-07-09T02:22:19;5.68;;;2.65;;
69502;SDS011;56704;54.242;12.442;2023-07-09T02:24:45;6.90;;;2.78;;
69502;SDS011;56704;54.242;12.442;2023-07-09T02:27:16;5.90;;;2.67;;
69502;SDS011;56704;54.242;12.442;2023-07-09T02:29:43;6.87;;;2.90;;
69502;SDS011;56704;54.242;12.442;2023-07-09T02:32:13;6.28;;;2.80;;
69502;SDS011;56704;54.242;12.442;2023-07-09T02:34:44;6.13;;;2.90;;
69502;SDS011;56704;54.242;12.442;2023-07-09T02:37:14;7.90;;;3.05;;
69502;SDS011;56704;54.242;12.442;2023-07-09T02:39:42;5.55;;;2.60;;
69502;SDS011;56704;54.242;12.442;2023-07-09T02:42:08;8.43;;;2.93;;
69502;SDS011;56704;54.242;12.442;2023-07-09T02:44:36;6.75;;;3.35;;
69502;SDS011;56704;54.242;12.442;2023-07-09T02:47:03;7.25;;;2.70;;
69502;SDS011;56704;54.242;12.442;2023-07-09T02:49:31;5.55;;;2.80;;
69502;SDS011;56704;54.242;12.442;2023-07-09T02:51:58;7.30;;;3.17;;
69502;SDS011;56704;54.242;12.442;2023-07-09T02:54:24;6.93;;;2.90;;
69502;SDS011;56704;54.242;12.442;2023-07-09T02:56:51;6.35;;;2.70;;
69502;SDS011;56704;54.242;12.442;2023-07-09T02:59:18;7.20;;;3.05;;
69502;SDS011;56704;54.242;12.442;2023-07-09T03:01:44;7.18;;;2.45;;
69502;SDS011;56704;54.242;12.442;2023-07-09T03:04:12;6.90;;;2.50;;
69502;SDS011;56704;54.242;12.442;2023-07-09T03:06:40;5.77;;;2.87;;
69502;SDS011;56704;54.242;12.442;2023-07-09T03:09:08;6.40;;;2.60;;
69502;SDS011;56704;54.242;12.442;2023-07-09T03:11:35;6.18;;;2.80;;
69502;SDS011;56704;54.242;12.442;2023-07-09T03:14:02;6.07;;;2.90;;
69502;SDS011;56704;54.242;12.442;2023-07-09T03:16:30;6.93;;;3.05;;
69502;SDS011;56704;54.242;12.442;2023-07-09T03:18:58;6.27;;;2.80;;
69502;SDS011;56704;54.242;12.442;2023-07-09T03:21:25;6.45;;;3.05;;
69502;SDS011;56704;54.242;12.442;2023-07-09T03:23:55;6.15;;;2.75;;
69502;SDS011;56704;54.242;12.442;2023-07-09T03:26:22;6.75;;;2.95;;
69502;SDS011;56704;54.242;12.442;2023-07-09T03:28:50;6.43;;;3.00;;
69502;SDS011;56704;54.242;12.442;2023-07-09T03:31:17;6.20;;;2.83;;
69502;SDS011;56704;54.242;12.442;2023-07-09T03:33:43;6.95;;;2.92;;
69502;SDS011;56704;54.242;12.442;2023-07-09T03:36:12;6.50;;;2.85;;
69502;SDS011;56704;54.242;12.442;2023-07-09T03:38:39;7.43;;;2.85;;
69502;SDS011;56704;54.242;12.442;2023-07-09T03:41:07;7.22;;;3.33;;
69502;SDS011;56704;54.242;12.442;2023-07-09T03:43:34;6.93;;;3.20;;
69502;SDS011;56704;54.242;12.442;2023-07-09T03:46:00;7.20;;;3.05;;
69502;SDS011;56704;54.242;12.442;2023-07-09T03:48:27;7.03;;;2.95;;
69502;SDS011;56704;54.242;12.442;2023-07-09T03:50:54;6.05;;;2.72;;
69502;SDS011;56704;54.242;12.442;2023-07-09T03:53:21;6.50;;;2.80;;
69502;SDS011;56704;54.242;12.442;2023-07-09T03:55:51;7.33;;;3.10;;
69502;SDS011;56704;54.242;12.442;2023-07-09T03:58:20;5.95;;;2.55;;
69502;SDS011;56704;54.242;12.442;2023-07-09T04:00:46;6.03;;;2.65;;
69502;SDS011;56704;54.242;12.442;2023-07-09T04:03:13;8.40;;;3.15;;
69502;SDS011;56704;54.242;12.442;2023-07-09T04:05:40;8.55;;;3.20;;
69502;SDS011;56704;54.242;12.442;2023-07-09T04:08:06;7.00;;;3.07;;
69502;SDS011;56704;54.242;12.442;2023-07-09T04:10:33;7.82;;;2.90;;
69502;SDS011;56704;54.242;12.442;2023-07-09T04:12:59;5.60;;;2.55;;
69502;SDS011;56704;54.242;12.442;2023-07-09T04:15:27;8.02;;;2.92;;
69502;SDS011;56704;54.242;12.442;2023-07-09T04:17:54;7.15;;;3.13;;
69502;SDS011;56704;54.242;12.442;2023-07-09T04:20:21;7.87;;;2.83;;
69502;SDS011;56704;54.242;12.442;2023-07-09T04:22:48;6.30;;;2.80;;
69502;SDS011;56704;54.242;12.442;2023-07-09T04:25:15;7.07;;;3.50;;
69502;SDS011;56704;54.242;12.442;2023-07-09T04:27:42;6.10;;;3.28;;
69502;SDS011;56704;54.242;12.442;2023-07-09T04:30:09;7.82;;;3.00;;
69502;SDS011;56704;54.242;12.442;2023-07-09T04:32:38;8.17;;;3.43;;
69502;SDS011;56704;54.242;12.442;2023-07-09T04:35:08;9.45;;;3.35;;
69502;SDS011;56704;54.242;12.442;2023-07-09T04:37:36;6.63;;;3.13;;
69502;SDS011;56704;54.242;12.442;2023-07-09T04:40:03;7.82;;;3.30;;
69502;SDS011;56704;54.242;12.442;2023-07-09T04:42:31;6.13;;;2.58;;
69502;SDS011;56704;54.242;12.442;2023-07-09T04:44:58;6.50;;;3.20;;
69502;SDS011;56704;54.242;12.442;2023-07-09T04:47:25;5.72;;;2.72;;
69502;SDS011;56704;54.242;12.442;2023-07-09T04:49:53;6.80;;;2.85;;
69502;SDS011;56704;54.242;12.442;2023-07-09T04:52:19;7.82;;;2.95;;
69502;SDS011;56704;54.242;12.442;2023-07-09T04:54:47;9.90;;;3.35;;
69502;SDS011;56704;54.242;12.442;2023-07-09T04:57:15;8.00;;;2.90;;
69502;SDS011;56704;54.242;12.442;2023-07-09T04:59:42;6.75;;;2.70;;
69502;SDS011;56704;54.242;12.442;2023-07-09T05:02:09;5.90;;;3.00;;
69502;SDS011;56704;54.242;12.442;2023-07-09T05:04:35;8.15;;;2.80;;
69502;SDS011;56704;54.242;12.442;2023-07-09T05:07:04;6.60;;;2.90;;
69502;SDS011;56704;54.242;12.442;2023-07-09T05:09:30;6.63;;;2.63;;
69502;SDS011;56704;54.242;12.442;2023-07-09T05:11:57;6.50;;;2.63;;
69502;SDS011;56704;54.242;12.442;2023-07-09T05:14:25;8.75;;;3.55;;
69502;SDS011;56704;54.242;12.442;2023-07-09T05:16:52;9.07;;;3.40;;
69502;SDS011;56704;54.242;12.442;2023-07-09T05:19:19;8.27;;;3.10;;
69502;SDS011;56704;54.242;12.442;2023-07-09T05:21:45;7.77;;;3.00;;
69502;SDS011;56704;54.242;12.442;2023-07-09T05:24:13;7.82;;;3.35;;
69502;SDS011;56704;54.242;12.442;2023-07-09T05:26:40;6.50;;;2.58;;
69502;SDS011;56704;54.242;12.442;2023-07-09T05:29:06;7.18;;;3.15;;
69502;SDS011;56704;54.242;12.442;2023-07-09T05:31:33;5.90;;;2.65;;
69502;SDS011;56704;54.242;12.442;2023-07-09T05:34:01;6.10;;;2.60;;
69502;SDS011;56704;54.242;12.442;2023-07-09T05:36:28;5.72;;;2.60;;
69502;SDS011;56704;54.242;12.442;2023-07-09T05:38:55;6.13;;;2.55;;
69502;SDS011;56704;54.242;12.442;2023-07-09T05:41:23;5.30;;;2.42;;
69502;SDS011;56704;54.242;12.442;2023-07-09T05:43:51;9.38;;;2.60;;
69502;SDS011;56704;54.242;12.442;2023-07-09T05:46:18;7.27;;;2.70;;
69502;SDS011;56704;54.242;12.442;2023-07-09T05:48:45;5.05;;;2.40;;
69502;SDS011;56704;54.242;12.442;2023-07-09T05:51:12;4.78;;;2.20;;
69502;SDS011;56704;54.242;12.442;2023-07-09T05:53:39;5.82;;;2.70;;
69502;SDS011;56704;54.242;12.442;2023-07-09T05:56:06;6.55;;;2.60;;
69502;SDS011;56704;54.242;12.442;2023-07-09T05:58:34;4.20;;;2.10;;
69502;SDS011;56704;54.242;12.442;2023-07-09T06:01:01;4.45;;;1.90;;
69502;SDS011;56704;54.242;12.442;2023-07-09T06:03:28;6.07;;;2.00;;
69502;SDS011;56704;54.242;12.442;2023-07-09T06:05:55;6.38;;;2.20;;
69502;SDS011;56704;54.242;12.442;2023-07-09T06:08:23;5.82;;;2.28;;
69502;SDS011;56704;54.242;12.442;2023-07-09T06:10:52;4.57;;;2.20;;
69502;SDS011;56704;54.242;12.442;2023-07-09T06:13:20;5.65;;;1.98;;
69502;SDS011;56704;54.242;12.442;2023-07-09T06:15:48;5.20;;;1.95;;
69502;SDS011;56704;54.242;12.442;2023-07-09T06:18:15;5.53;;;2.20;;
69502;SDS011;56704;54.242;12.442;2023-07-09T06:20:45;5.05;;;1.98;;
69502;SDS011;56704;54.242;12.442;2023-07-09T06:23:13;4.27;;;1.60;;
69502;SDS011;56704;54.242;12.442;2023-07-09T06:25:39;4.20;;;1.88;;
69502;SDS011;56704;54.242;12.442;2023-07-09T06:28:06;4.45;;;1.88;;
69502;SDS011;56704;54.242;12.442;2023-07-09T06:30:32;5.20;;;2.00;;
69502;SDS011;56704;54.242;12.442;2023-07-09T06:33:00;6.25;;;1.30;;
69502;SDS011;56704;54.242;12.442;2023-07-09T06:35:27;3.80;;;1.17;;
69502;SDS011;56704;54.242;12.442;2023-07-09T06:37:54;5.65;;;1.60;;
69502;SDS011;56704;54.242;12.442;2023-07-09T06:40:20;4.50;;;1.90;;
69502;SDS011;56704;54.242;12.442;2023-07-09T06:42:49;3.80;;;1.52;;
69502;SDS011;56704;54.242;12.442;2023-07-09T06:45:15;4.25;;;1.65;;
69502;SDS011;56704;54.242;12.442;2023-07-09T06:47:42;4.70;;;1.80;;
69502;SDS011;56704;54.242;12.442;2023-07-09T06:50:10;4.90;;;1.60;;
69502;SDS011;56704;54.242;12.442;2023-07-09T06:52:37;5.30;;;1.80;;
69502;SDS011;56704;54.242;12.442;2023-07-09T06:55:04;3.70;;;1.70;;
69502;SDS011;56704;54.242;12.442;2023-07-09T06:57:32;6.03;;;1.85;;
69502;SDS011;56704;54.242;12.442;2023-07-09T06:59:58;3.33;;;1.47;;
69502;SDS011;56704;54.242;12.442;2023-07-09T07:02:25;6.60;;;1.50;;
69502;SDS011;56704;54.242;12.442;2023-07-09T07:04:52;4.65;;;1.95;;
69502;SDS011;56704;54.242;12.442;2023-07-09T07:07:20;3.80;;;1.52;;
69502;SDS011;56704;54.242;12.442;2023-07-09T07:09:47;3.70;;;1.48;;
69502;SDS011;56704;54.242;12.442;2023-07-09T07:12:19;3.87;;;1.40;;
69502;SDS011;56704;54.242;12.442;2023-07-09T07:14:49;5.38;;;1.48;;
69502;SDS011;56704;54.242;12.442;2023-07-09T07:17:16;4.95;;;1.60;;
69502;SDS011;56704;54.242;12.442;2023-07-09T07:19:43;4.00;;;1.67;;
69502;SDS011;56704;54.242;12.442;2023-07-09T07:22:09;4.82;;;1.52;;
69502;SDS011;56704;54.242;12.442;2023-07-09T07:24:37;3.90;;;1.50;;
69502;SDS011;56704;54.242;12.442;2023-07-09T07:27:04;5.32;;;1.85;;
69502;SDS011;56704;54.242;12.442;2023-07-09T07:29:31;4.45;;;1.90;;
69502;SDS011;56704;54.242;12.442;2023-07-09T07:31:58;4.32;;;1.90;;
69502;SDS011;56704;54.242;12.442;2023-07-09T07:34:25;4.38;;;1.98;;
69502;SDS011;56704;54.242;12.442;2023-07-09T07:36:52;4.23;;;1.80;;
69502;SDS011;56704;54.242;12.442;2023-07-09T07:39:19;4.82;;;2.00;;
69502;SDS011;56704;54.242;12.442;2023-07-09T07:41:46;4.97;;;2.25;;
69502;SDS011;56704;54.242;12.442;2023-07-09T07:44:15;4.20;;;1.83;;
69502;SDS011;56704;54.242;12.442;2023-07-09T07:46:42;4.05;;;2.08;;
69502;SDS011;56704;54.242;12.442;2023-07-09T07:49:09;5.27;;;1.90;;
69502;SDS011;56704;54.242;12.442;2023-07-09T07:51:36;3.88;;;1.80;;
69502;SDS011;56704;54.242;12.442;2023-07-09T07:54:03;3.42;;;1.63;;
69502;SDS011;56704;54.242;12.442;2023-07-09T07:56:31;4.32;;;1.77;;
69502;SDS011;56704;54.242;12.442;2023-07-09T07:58:59;4.80;;;1.90;;
69502;SDS011;56704;54.242;12.442;2023-07-09T08:01:26;4.93;;;1.80;;
69502;SDS011;56704;54.242;12.442;2023-07-09T08:03:53;3.95;;;1.83;;
69502;SDS011;56704;54.242;12.442;2023-07-09T08:06:19;5.25;;;2.20;;
69502;SDS011;56704;54.242;12.442;2023-07-09T08:08:46;4.35;;;2.13;;
69502;SDS011;56704;54.242;12.442;2023-07-09T08:11:13;3.17;;;1.88;;
69502;SDS011;56704;54.242;12.442;2023-07-09T08:13:40;4.33;;;1.70;;
69502;SDS011;56704;54.242;12.442;2023-07-09T08:16:08;4.53;;;1.83;;
69502;SDS011;56704;54.242;12.442;2023-07-09T08:18:37;3.97;;;2.00;;
69502;SDS011;56704;54.242;12.442;2023-07-09T08:21:03;4.47;;;1.80;;
69502;SDS011;56704;54.242;12.442;2023-07-09T08:23:30;4.40;;;2.10;;
69502;SDS011;56704;54.242;12.442;2023-07-09T08:25:57;4.60;;;1.50;;
69502;SDS011;56704;54.242;12.442;2023-07-09T08:28:27;3.53;;;1.52;;
69502;SDS011;56704;54.242;12.442;2023-07-09T08:30:53;5.18;;;1.80;;
69502;SDS011;56704;54.242;12.442;2023-07-09T08:33:22;4.32;;;1.80;;
69502;SDS011;56704;54.242;12.442;2023-07-09T08:35:50;5.25;;;1.80;;
69502;SDS011;56704;54.242;12.442;2023-07-09T08:38:17;3.83;;;1.40;;
69502;SDS011;56704;54.242;12.442;2023-07-09T08:40:48;3.08;;;1.50;;
69502;SDS011;56704;54.242;12.442;2023-07-09T08:43:24;3.92;;;1.77;;
69502;SDS011;56704;54.242;12.442;2023-07-09T08:46:17;3.00;;;1.38;;
69502;SDS011;56704;54.242;12.442;2023-07-09T08:48:52;3.95;;;1.50;;
69502;SDS011;56704;54.242;12.442;2023-07-09T08:51:21;4.10;;;1.60;;
69502;SDS011;56704;54.242;12.442;2023-07-09T08:53:53;4.22;;;1.50;;
69502;SDS011;56704;54.242;12.442;2023-07-09T08:56:23;3.17;;;1.67;;
69502;SDS011;56704;54.242;12.442;2023-07-09T08:58:52;3.67;;;1.63;;
69502;SDS011;56704;54.242;12.442;2023-07-09T09:01:23;4.38;;;1.63;;
69502;SDS011;56704;54.242;12.442;2023-07-09T09:03:55;3.30;;;1.50;;
69502;SDS011;56704;54.242;12.442;2023-07-09T09:06:28;3.78;;;1.52;;
69502;SDS011;56704;54.242;12.442;2023-07-09T09:09:02;3.60;;;1.60;;
69502;SDS011;56704;54.242;12.442;2023-07-09T09:11:41;3.13;;;1.63;;
69502;SDS011;56704;54.242;12.442;2023-07-09T09:14:17;3.10;;;1.50;;
69502;SDS011;56704;54.242;12.442;2023-07-09T09:16:49;3.97;;;2.00;;
69502;SDS011;56704;54.242;12.442;2023-07-09T09:19:20;3.33;;;1.50;;
69502;SDS011;56704;54.242;12.442;2023-07-09T09:21:50;4.07;;;1.80;;
69502;SDS011;56704;54.242;12.442;2023-07-09T09:24:25;3.20;;;1.52;;
69502;SDS011;56704;54.242;12.442;2023-07-09T09:26:56;3.88;;;1.80;;
69502;SDS011;56704;54.242;12.442;2023-07-09T09:29:24;3.90;;;1.70;;
69502;SDS011;56704;54.242;12.442;2023-07-09T09:31:53;4.28;;;1.77;;
69502;SDS011;56704;54.242;12.442;2023-07-09T09:34:25;4.38;;;1.92;;
69502;SDS011;56704;54.242;12.442;2023-07-09T09:36:53;3.72;;;1.60;;
69502;SDS011;56704;54.242;12.442;2023-07-09T09:39:20;3.95;;;1.90;;
69502;SDS011;56704;54.242;12.442;2023-07-09T09:41:48;4.90;;;1.80;;
69502;SDS011;56704;54.242;12.442;2023-07-09T09:44:18;3.92;;;1.70;;
69502;SDS011;56704;54.242;12.442;2023-07-09T09:46:47;3.60;;;2.00;;
69502;SDS011;56704;54.242;12.442;2023-07-09T09:49:15;3.53;;;2.00;;
69502;SDS011;56704;54.242;12.442;2023-07-09T09:51:44;4.70;;;2.03;;
69502;SDS011;56704;54.242;12.442;2023-07-09T09:54:14;3.70;;;1.80;;
69502;SDS011;56704;54.242;12.442;2023-07-09T09:56:44;4.18;;;2.10;;
69502;SDS011;56704;54.242;12.442;2023-07-09T09:59:15;4.55;;;2.10;;
69502;SDS011;56704;54.242;12.442;2023-07-09T10:01:44;4.90;;;2.10;;
69502;SDS011;56704;54.242;12.442;2023-07-09T10:04:13;3.65;;;1.70;;
69502;SDS011;56704;54.242;12.442;2023-07-09T10:06:45;3.40;;;1.77;;
69502;SDS011;56704;54.242;12.442;2023-07-09T10:12:08;4.15;;;2.03;;
69502;SDS011;56704;54.242;12.442;2023-07-09T10:14:45;3.95;;;1.70;;
69502;SDS011;56704;54.242;12.442;2023-07-09T10:17:20;3.80;;;2.00;;
69502;SDS011;56704;54.242;12.442;2023-07-09T10:19:56;4.03;;;1.90;;
69502;SDS011;56704;54.242;12.442;2023-07-09T10:22:32;3.92;;;1.73;;
69502;SDS011;56704;54.242;12.442;2023-07-09T10:25:09;4.97;;;1.85;;
69502;SDS011;56704;54.242;12.442;2023-07-09T10:27:44;5.13;;;2.22;;
69502;SDS011;56704;54.242;12.442;2023-07-09T10:30:30;3.95;;;2.15;;
69502;SDS011;56704;54.242;12.442;2023-07-09T10:33:08;4.23;;;2.07;;
69502;SDS011;56704;54.242;12.442;2023-07-09T10:35:37;3.60;;;1.90;;
69502;SDS011;56704;54.242;12.442;2023-07-09T10:38:22;5.18;;;2.08;;
69502;SDS011;56704;54.242;12.442;2023-07-09T10:40:59;4.93;;;2.33;;
69502;SDS011;56704;54.242;12.442;2023-07-09T10:43:31;4.13;;;2.10;;
69502;SDS011;56704;54.242;12.442;2023-07-09T10:46:03;5.33;;;2.03;;
69502;SDS011;56704;54.242;12.442;2023-07-09T10:48:37;4.45;;;2.00;;
69502;SDS011;56704;54.242;12.442;2023-07-09T10:51:07;4.25;;;1.90;;
69502;SDS011;56704;54.242;12.442;2023-07-09T10:53:50;3.67;;;1.88;;
69502;SDS011;56704;54.242;12.442;2023-07-09T10:56:22;6.03;;;2.22;;
69502;SDS011;56704;54.242;12.442;2023-07-09T10:58:53;4.53;;;1.83;;
69502;SDS011;56704;54.242;12.442;2023-07-09T11:01:26;5.40;;;2.22;;
69502;SDS011;56704;54.242;12.442;2023-07-09T11:03:56;4.78;;;2.03;;
69502;SDS011;56704;54.242;12.442;2023-07-09T11:06:30;3.70;;;2.20;;
69502;SDS011;56704;54.242;12.442;2023-07-09T11:09:01;3.53;;;1.98;;
69502;SDS011;56704;54.242;12.442;2023-07-09T11:11:37;4.07;;;1.80;;
69502;SDS011;56704;54.242;12.442;2023-07-09T11:14:09;4.72;;;2.50;;
69502;SDS011;56704;54.242;12.442;2023-07-09T11:16:45;4.63;;;2.30;;
69502;SDS011;56704;54.242;12.442;2023-07-09T11:19:15;4.13;;;2.10;;
69502;SDS011;56704;54.242;12.442;2023-07-09T11:21:45;4.60;;;2.40;;
69502;SDS011;56704;54.242;12.442;2023-07-09T11:24:32;3.60;;;2.00;;
69502;SDS011;56704;54.242;12.442;2023-07-09T11:27:01;4.35;;;2.45;;
69502;SDS011;56704;54.242;12.442;2023-07-09T11:29:27;4.22;;;2.30;;
69502;SDS011;56704;54.242;12.442;2023-07-09T11:31:55;3.80;;;2.25;;
69502;SDS011;56704;54.242;12.442;2023-07-09T11:34:32;4.07;;;2.55;;
69502;SDS011;56704;54.242;12.442;2023-07-09T11:36:59;3.90;;;2.60;;
69502;SDS011;56704;54.242;12.442;2023-07-09T11:39:28;6.05;;;2.50;;
69502;SDS011;56704;54.242;12.442;2023-07-09T11:41:58;3.92;;;2.42;;
69502;SDS011;56704;54.242;12.442;2023-07-09T11:44:26;4.25;;;2.38;;
69502;SDS011;56704;54.242;12.442;2023-07-09T11:46:58;4.38;;;2.40;;
69502;SDS011;56704;54.242;12.442;2023-07-09T11:52:48;5.00;;;2.65;;
69502;SDS011;56704;54.242;12.442;2023-07-09T11:55:24;3.63;;;2.20;;
69502;SDS011;56704;54.242;12.442;2023-07-09T11:57:55;4.95;;;2.40;;
69502;SDS011;56704;54.242;12.442;2023-07-09T12:00:22;4.30;;;2.55;;
69502;SDS011;56704;54.242;12.442;2023-07-09T12:02:49;4.97;;;2.90;;
69502;SDS011;56704;54.242;12.442;2023-07-09T12:05:19;4.32;;;2.20;;
69502;SDS011;56704;54.242;12.442;2023-07-09T12:07:48;4.45;;;2.97;;
69502;SDS011;56704;54.242;12.442;2023-07-09T12:10:19;6.45;;;2.88;;
69502;SDS011;56704;54.242;12.442;2023-07-09T12:12:48;4.68;;;2.55;;
69502;SDS011;56704;54.242;12.442;2023-07-09T12:15:21;3.87;;;2.30;;
69502;SDS011;56704;54.242;12.442;2023-07-09T12:17:52;4.15;;;2.65;;
69502;SDS011;56704;54.242;12.442;2023-07-09T12:20:20;4.22;;;2.15;;
69502;SDS011;56704;54.242;12.442;2023-07-09T12:22:47;4.88;;;2.70;;
69502;SDS011;56704;54.242;12.442;2023-07-09T12:25:18;6.03;;;3.00;;
69502;SDS011;56704;54.242;12.442;2023-07-09T12:27:47;3.73;;;2.70;;
69502;SDS011;56704;54.242;12.442;2023-07-09T12:30:14;4.60;;;2.95;;
69502;SDS011;56704;54.242;12.442;2023-07-09T12:32:45;4.97;;;2.90;;
69502;SDS011;56704;54.242;12.442;2023-07-09T12:35:15;5.55;;;2.60;;
69502;SDS011;56704;54.242;12.442;2023-07-09T12:37:43;4.47;;;3.03;;
69502;SDS011;56704;54.242;12.442;2023-07-09T12:40:12;5.27;;;2.90;;
69502;SDS011;56704;54.242;12.442;2023-07-09T12:42:42;4.57;;;2.70;;
69502;SDS011;56704;54.242;12.442;2023-07-09T12:45:14;4.40;;;3.00;;
69502;SDS011;56704;54.242;12.442;2023-07-09T12:47:43;4.07;;;2.70;;
69502;SDS011;56704;54.242;12.442;2023-07-09T12:50:18;5.43;;;3.25;;
69502;SDS011;56704;54.242;12.442;2023-07-09T12:52:48;5.50;;;2.80;;
69502;SDS011;56704;54.242;12.442;2023-07-09T12:55:19;6.10;;;2.83;;
69502;SDS011;56704;54.242;12.442;2023-07-09T12:57:47;4.90;;;3.13;;
69502;SDS011;56704;54.242;12.442;2023-07-09T13:00:14;5.13;;;3.17;;
69502;SDS011;56704;54.242;12.442;2023-07-09T13:02:41;6.22;;;3.33;;
69502;SDS011;56704;54.242;12.442;2023-07-09T13:05:18;5.07;;;3.47;;
69502;SDS011;56704;54.242;12.442;2023-07-09T13:07:48;4.43;;;2.78;;
69502;SDS011;56704;54.242;12.442;2023-07-09T13:10:16;4.88;;;3.30;;
69502;SDS011;56704;54.242;12.442;2023-07-09T13:12:46;4.03;;;2.88;;
69502;SDS011;56704;54.242;12.442;2023-07-09T13:15:28;5.05;;;3.08;;
69502;SDS011;56704;54.242;12.442;2023-07-09T13:18:02;4.10;;;2.87;;
69502;SDS011;56704;54.242;12.442;2023-07-09T13:20:32;4.93;;;2.80;;
69502;SDS011;56704;54.242;12.442;2023-07-09T13:23:04;4.35;;;3.15;;
69502;SDS011;56704;54.242;12.442;2023-07-09T13:25:35;4.38;;;2.92;;
69502;SDS011;56704;54.242;12.442;2023-07-09T13:28:04;4.43;;;2.90;;
69502;SDS011;56704;54.242;12.442;2023-07-09T13:30:31;5.10;;;2.70;;
69502;SDS011;56704;54.242;12.442;2023-07-09T13:32:58;5.32;;;2.80;;
69502;SDS011;56704;54.242;12.442;2023-07-09T13:35:25;6.38;;;2.60;;
69502;SDS011;56704;54.242;12.442;2023-07-09T13:37:53;4.50;;;2.50;;
69502;SDS011;56704;54.242;12.442;2023-07-09T13:40:19;6.28;;;2.88;;
69502;SDS011;56704;54.242;12.442;2023-07-09T13:42:46;9.13;;;2.50;;
69502;SDS011;56704;54.242;12.442;2023-07-09T13:45:18;5.78;;;2.60;;
69502;SDS011;56704;54.242;12.442;2023-07-09T13:47:47;4.03;;;2.63;;
69502;SDS011;56704;54.242;12.442;2023-07-09T13:50:15;4.10;;;2.60;;
69502;SDS011;56704;54.242;12.442;2023-07-09T13:52:42;4.50;;;2.55;;
69502;SDS011;56704;54.242;12.442;2023-07-09T13:55:15;4.17;;;2.33;;
69502;SDS011;56704;54.242;12.442;2023-07-09T13:57:44;5.25;;;3.10;;
69502;SDS011;56704;54.242;12.442;2023-07-09T14:00:11;5.05;;;3.10;;
69502;SDS011;56704;54.242;12.442;2023-07-09T14:02:38;5.25;;;2.97;;
69502;SDS011;56704;54.242;12.442;2023-07-09T14:05:06;4.38;;;3.08;;
69502;SDS011;56704;54.242;12.442;2023-07-09T14:07:36;4.60;;;3.10;;
69502;SDS011;56704;54.242;12.442;2023-07-09T14:10:06;4.80;;;2.95;;
69502;SDS011;56704;54.242;12.442;2023-07-09T14:12:37;4.80;;;2.90;;
69502;SDS011;56704;54.242;12.442;2023-07-09T14:15:09;5.60;;;3.40;;
69502;SDS011;56704;54.242;12.442;2023-07-09T14:17:39;5.13;;;3.00;;
69502;SDS011;56704;54.242;12.442;2023-07-09T14:20:07;4.23;;;3.00;;
69502;SDS011;56704;54.242;12.442;2023-07-09T14:22:36;4.93;;;2.83;;
69502;SDS011;56704;54.242;12.442;2023-07-09T14:25:04;5.20;;;3.13;;
69502;SDS011;56704;54.242;12.442;2023-07-09T14:27:32;4.50;;;2.70;;
69502;SDS011;56704;54.242;12.442;2023-07-09T14:30:00;4.90;;;2.67;;
69502;SDS011;56704;54.242;12.442;2023-07-09T14:32:35;4.47;;;2.50;;
69502;SDS011;56704;54.242;12.442;2023-07-09T14:35:04;4.68;;;2.88;;
69502;SDS011;56704;54.242;12.442;2023-07-09T14:37:37;4.63;;;2.83;;
69502;SDS011;56704;54.242;12.442;2023-07-09T14:40:04;5.32;;;2.70;;
69502;SDS011;56704;54.242;12.442;2023-07-09T14:42:31;5.10;;;2.65;;
69502;SDS011;56704;54.242;12.442;2023-07-09T14:44:59;4.57;;;2.33;;
69502;SDS011;56704;54.242;12.442;2023-07-09T14:47:28;5.93;;;2.42;;
69502;SDS011;56704;54.242;12.442;2023-07-09T14:49:55;4.68;;;2.70;;